createdAt,value
2019-05-14T00:00:36.561Z,103320.70
2019-05-14T00:01:43.390Z,103331.13
2019-05-14T00:02:52.050Z,103331.70
2019-05-14T00:03:59.390Z,103331.70
2019-05-14T00:05:07.736Z,103330.47
2019-05-14T00:06:14.793Z,103331.60
2019-05-14T00:07:22.473Z,103326.88
2019-05-14T00:08:31.436Z,103332.40
2019-05-14T00:09:41.264Z,103327.66
2019-05-14T00:10:47.956Z,103316.13
2019-05-14T00:11:55.792Z,103323.33
2019-05-14T00:13:02.619Z,103322.05
2019-05-14T00:14:11.607Z,103318.11
2019-05-14T00:15:21.498Z,103322.31
2019-05-14T00:16:28.300Z,103321.52
2019-05-14T00:17:35.861Z,103325.86
2019-05-14T00:18:43.337Z,103319.38
2019-05-14T00:20:05.880Z,103317.91
2019-05-14T00:21:01.451Z,103318.28
2019-05-14T00:22:07.702Z,103320.47
2019-05-14T00:23:15.489Z,103317.53
2019-05-14T00:24:22.250Z,103320.03
2019-05-14T00:25:31.278Z,103316.58
2019-05-14T00:26:38.592Z,103317.80
2019-05-14T00:27:46.067Z,103320.78
2019-05-14T00:28:52.817Z,103312.00
2019-05-14T00:30:02.413Z,103314.07
2019-05-14T00:31:11.967Z,103311.42
2019-05-14T00:32:18.731Z,103315.73
2019-05-14T00:33:25.954Z,103312.59
2019-05-14T00:34:33.469Z,103309.98
2019-05-14T00:35:41.324Z,103316.47
2019-05-14T00:36:49.222Z,103321.20
2019-05-14T00:37:55.964Z,103313.29
2019-05-14T00:39:04.307Z,103311.91
2019-05-14T00:40:11.923Z,103308.02
2019-05-14T00:41:21.503Z,103304.57
2019-05-14T00:42:28.520Z,103298.14
2019-05-14T00:43:36.105Z,103296.55
2019-05-14T00:44:54.478Z,103296.50
2019-05-14T00:45:52.494Z,103296.17
2019-05-14T00:46:59.235Z,103303.83
2019-05-14T00:48:07.062Z,103298.14
2019-05-14T00:49:14.129Z,103302.77
2019-05-14T00:50:21.764Z,103301.28
2019-05-14T00:51:28.934Z,103296.03
2019-05-14T00:52:36.474Z,103295.23
2019-05-14T00:53:43.230Z,103286.42
2019-05-14T00:54:52.177Z,103284.98
2019-05-14T00:56:01.908Z,103288.69
2019-05-14T00:57:11.576Z,103283.17
2019-05-14T00:58:17.832Z,103284.81
2019-05-14T00:59:25.643Z,103281.94
2019-05-14T01:00:32.739Z,103285.72
2019-05-14T01:01:42.262Z,103281.47
2019-05-14T01:02:48.703Z,103284.49
2019-05-14T01:03:56.709Z,103275.47
2019-05-14T01:05:04.471Z,103274.25
2019-05-14T01:06:12.312Z,103275.69
2019-05-14T01:07:21.137Z,103276.74
2019-05-14T01:08:28.595Z,103270.22
2019-05-14T01:09:35.391Z,103269.04
2019-05-14T01:10:43.179Z,103267.45
2019-05-14T01:11:51.262Z,103271.31
2019-05-14T01:13:01.156Z,103270.18
2019-05-14T01:14:07.771Z,103268.91
2019-05-14T01:15:15.529Z,103269.30
2019-05-14T01:16:22.520Z,103271.48
2019-05-14T01:17:31.490Z,103261.47
2019-05-14T01:18:38.578Z,103267.25
2019-05-14T01:19:46.093Z,103265.02
2019-05-14T01:20:53.247Z,103269.74
2019-05-14T01:22:01.750Z,103267.09
2019-05-14T01:23:08.679Z,103261.81
2019-05-14T01:24:16.158Z,103260.07
2019-05-14T01:25:23.865Z,103263.56
2019-05-14T01:26:31.375Z,103263.03
2019-05-14T01:27:38.550Z,103266.05
2019-05-14T01:28:46.077Z,103272.00
2019-05-14T01:29:53.026Z,103271.52
2019-05-14T01:31:01.227Z,103276.45
2019-05-14T01:32:08.724Z,103276.03
2019-05-14T01:33:16.202Z,103274.91
2019-05-14T01:34:22.967Z,103285.05
2019-05-14T01:35:31.545Z,103278.94
2019-05-14T01:36:41.190Z,103275.64
2019-05-14T01:37:48.437Z,103281.48
2019-05-14T01:38:55.626Z,103283.23
2019-05-14T01:40:03.739Z,103282.03
2019-05-14T01:41:11.820Z,103280.02
2019-05-14T01:42:21.613Z,103282.34
2019-05-14T01:43:28.708Z,103287.00
2019-05-14T01:44:37.113Z,103281.84
2019-05-14T01:45:44.221Z,103275.31
2019-05-14T01:46:52.008Z,103274.02
2019-05-14T01:48:00.999Z,103272.28
2019-05-14T01:49:07.935Z,103273.50
2019-05-14T01:50:15.757Z,103275.68
2019-05-14T01:51:23.386Z,103276.28
2019-05-14T01:52:31.801Z,103270.44
2019-05-14T01:53:41.490Z,103277.66
2019-05-14T01:54:47.893Z,103272.88
2019-05-14T01:55:55.500Z,103274.20
2019-05-14T01:57:02.327Z,103271.04
2019-05-14T01:58:11.498Z,103271.19
2019-05-14T01:59:18.482Z,103273.73
2019-05-14T02:00:26.571Z,103270.04
2019-05-14T02:01:34.269Z,103264.40
2019-05-14T02:02:41.969Z,103273.31
2019-05-14T02:03:48.767Z,103269.91
2019-05-14T02:04:56.321Z,103264.66
2019-05-14T02:06:03.077Z,103259.97
2019-05-14T02:07:11.568Z,103263.84
2019-05-14T02:08:21.298Z,103261.86
2019-05-14T02:09:28.521Z,103266.37
2019-05-14T02:10:35.267Z,103261.50
2019-05-14T02:11:43.095Z,103269.50
2019-05-14T02:12:51.600Z,103269.02
2019-05-14T02:13:59.243Z,103268.25
2019-05-14T02:15:06.247Z,103265.75
2019-05-14T02:16:14.089Z,103272.05
2019-05-14T02:17:21.413Z,103268.29
2019-05-14T02:18:31.128Z,103271.67
2019-05-14T02:19:38.173Z,103266.47
2019-05-14T02:20:46.573Z,103268.81
2019-05-14T02:21:53.334Z,103273.01
2019-05-14T02:23:01.603Z,103271.00
2019-05-14T02:24:08.590Z,103268.58
2019-05-14T02:25:16.666Z,103270.70
2019-05-14T02:26:23.767Z,103267.78
2019-05-14T02:27:34.888Z,103270.82
2019-05-14T02:28:42.006Z,103266.50
2019-05-14T02:29:51.660Z,103265.97
2019-05-14T02:31:02.748Z,103263.34
2019-05-14T02:32:10.433Z,103261.39
2019-05-14T02:33:19.096Z,103264.28
2019-05-14T02:34:25.540Z,103263.08
2019-05-14T02:35:32.331Z,103266.63
2019-05-14T02:36:40.293Z,103261.13
2019-05-14T02:37:50.211Z,103259.97
2019-05-14T02:39:00.120Z,103261.06
2019-05-14T02:40:09.617Z,103251.91
2019-05-14T02:41:19.264Z,103253.19
2019-05-14T02:42:24.439Z,103249.81
2019-05-14T02:43:32.033Z,103245.14
2019-05-14T02:44:40.904Z,103249.45
2019-05-14T02:46:02.123Z,103247.50
2019-05-14T02:46:59.183Z,103249.16
2019-05-14T02:48:09.441Z,103245.39
2019-05-14T02:49:14.681Z,103241.44
2019-05-14T02:50:22.566Z,103240.00
2019-05-14T02:51:30.183Z,103249.02
2019-05-14T02:52:40.191Z,103245.56
2019-05-14T02:53:49.585Z,103241.20
2019-05-14T02:54:55.901Z,103242.72
2019-05-14T02:56:02.789Z,103244.47
2019-05-14T02:57:10.995Z,103248.78
2019-05-14T02:58:20.622Z,103243.97
2019-05-14T02:59:30.177Z,103241.25
2019-05-14T03:00:35.896Z,103238.53
2019-05-14T03:01:43.363Z,103238.47
2019-05-14T03:02:50.124Z,103240.11
2019-05-14T03:03:59.868Z,103234.06
2019-05-14T03:05:09.539Z,103235.33
2019-05-14T03:06:16.033Z,103238.31
2019-05-14T03:07:22.871Z,103242.13
2019-05-14T03:08:31.149Z,103235.83
2019-05-14T03:09:40.303Z,103231.62
2019-05-14T03:10:50.209Z,103233.70
2019-05-14T03:11:59.310Z,103235.75
2019-05-14T03:13:05.742Z,103234.48
2019-05-14T03:14:12.491Z,103245.52
2019-05-14T03:15:20.338Z,103244.23
2019-05-14T03:16:32.584Z,103254.41
2019-05-14T03:17:40.047Z,103248.00
2019-05-14T03:18:45.742Z,103251.75
2019-05-14T03:19:53.435Z,103254.30
2019-05-14T03:21:01.217Z,103247.88
2019-05-14T03:22:10.116Z,103250.71
2019-05-14T03:23:19.629Z,103251.21
2019-05-14T03:24:28.860Z,103248.61
2019-05-14T03:25:35.432Z,103241.89
2019-05-14T03:26:42.941Z,103242.44
2019-05-14T03:27:50.351Z,103242.11
2019-05-14T03:29:00.093Z,103239.56
2019-05-14T03:30:12.650Z,103239.89
2019-05-14T03:31:22.135Z,103241.80
2019-05-14T03:32:25.568Z,103238.98
2019-05-14T03:33:34.429Z,103238.37
2019-05-14T03:34:43.767Z,103236.04
2019-05-14T03:35:58.851Z,103232.31
2019-05-14T03:37:03.171Z,103228.11
2019-05-14T03:38:09.829Z,103226.97
2019-05-14T03:39:19.112Z,103227.47
2019-05-14T03:40:29.157Z,103226.97
2019-05-14T03:41:34.678Z,103221.11
2019-05-14T03:42:42.577Z,103224.30
2019-05-14T03:43:49.730Z,103223.34
2019-05-14T03:44:59.770Z,103220.78
2019-05-14T03:46:09.467Z,103212.73
2019-05-14T03:47:19.386Z,103202.40
2019-05-14T03:48:25.098Z,103206.20
2019-05-14T03:49:32.886Z,103202.86
2019-05-14T03:50:39.981Z,103216.42
2019-05-14T03:51:49.725Z,103210.50
2019-05-14T03:52:59.485Z,103212.61
2019-05-14T03:54:11.333Z,103209.33
2019-05-14T03:55:14.723Z,103207.50
2019-05-14T03:56:22.527Z,103207.56
2019-05-14T03:57:29.430Z,103207.86
2019-05-14T03:58:39.315Z,103204.90
2019-05-14T03:59:49.598Z,103207.86
2019-05-14T04:01:03.030Z,103204.72
2019-05-14T04:02:11.739Z,103202.95
2019-05-14T04:03:20.000Z,103201.38
2019-05-14T04:04:29.874Z,103202.00
2019-05-14T04:05:40.070Z,103196.33
2019-05-14T04:06:49.612Z,103203.30
2019-05-14T04:08:00.096Z,103203.77
2019-05-14T04:09:09.649Z,103197.50
2019-05-14T04:10:19.493Z,103199.36
2019-05-14T04:11:29.624Z,103203.52
2019-05-14T04:12:40.488Z,103202.75
2019-05-14T04:13:52.505Z,103200.32
2019-05-14T04:15:04.348Z,103204.94
2019-05-14T04:16:14.707Z,103196.08
2019-05-14T04:17:33.637Z,103197.39
2019-05-14T04:18:40.186Z,103201.19
2019-05-14T04:19:51.168Z,103197.75
2019-05-14T04:20:59.808Z,103204.92
2019-05-14T04:22:10.238Z,103203.09
2019-05-14T04:23:19.850Z,103202.55
2019-05-14T04:24:36.443Z,103205.80
2019-05-14T04:25:42.294Z,103205.20
2019-05-14T04:27:02.238Z,103204.14
2019-05-14T04:28:04.479Z,103203.50
2019-05-14T04:29:19.435Z,103199.41
2019-05-14T04:30:24.697Z,103197.02
2019-05-14T04:31:34.376Z,103201.52
2019-05-14T04:32:43.539Z,103196.04
2019-05-14T04:33:53.211Z,103200.34
2019-05-14T04:35:01.632Z,103200.81
2019-05-14T04:36:10.100Z,103198.73
2019-05-14T04:37:20.047Z,103200.01
2019-05-14T04:38:29.947Z,103197.61
2019-05-14T04:39:39.271Z,103203.75
2019-05-14T04:40:45.775Z,103200.22
2019-05-14T04:41:52.961Z,103202.54
2019-05-14T04:43:00.490Z,103200.70
2019-05-14T04:44:09.739Z,103199.36
2019-05-14T04:45:19.684Z,103197.16
2019-05-14T04:46:26.108Z,103197.43
2019-05-14T04:47:37.590Z,103200.74
2019-05-14T04:48:43.844Z,103196.82
2019-05-14T04:49:52.134Z,103191.63
2019-05-14T04:51:00.547Z,103196.18
2019-05-14T04:52:10.116Z,103191.84
2019-05-14T04:53:19.535Z,103195.86
2019-05-14T04:54:29.874Z,103192.19
2019-05-14T04:55:34.854Z,103193.33
2019-05-14T04:56:42.798Z,103190.40
2019-05-14T04:57:50.400Z,103183.88
2019-05-14T04:58:59.711Z,103186.28
2019-05-14T05:00:07.084Z,103187.50
2019-05-14T05:01:16.364Z,103179.34
2019-05-14T05:02:24.850Z,103182.17
2019-05-14T05:03:32.661Z,103183.05
2019-05-14T05:04:41.093Z,103187.20
2019-05-14T05:05:49.940Z,103185.94
2019-05-14T05:06:59.287Z,103184.33
2019-05-14T05:08:09.025Z,103185.61
2019-05-14T05:09:14.977Z,103183.01
2019-05-14T05:10:22.507Z,103177.81
2019-05-14T05:11:29.528Z,103180.59
2019-05-14T05:12:38.715Z,103183.13
2019-05-14T05:13:48.717Z,103183.84
2019-05-14T05:14:58.465Z,103182.46
2019-05-14T05:16:04.529Z,103180.67
2019-05-14T05:17:12.833Z,103184.11
2019-05-14T05:18:19.790Z,103177.80
2019-05-14T05:19:29.053Z,103183.41
2019-05-14T05:20:39.240Z,103177.09
2019-05-14T05:21:48.097Z,103178.38
2019-05-14T05:22:55.088Z,103176.24
2019-05-14T05:24:02.564Z,103175.92
2019-05-14T05:25:09.527Z,103171.81
2019-05-14T05:26:18.451Z,103175.84
2019-05-14T05:27:25.444Z,103180.98
2019-05-14T05:28:33.140Z,103175.84
2019-05-14T05:29:41.839Z,103172.91
2019-05-14T05:30:49.470Z,103173.38
2019-05-14T05:31:59.014Z,103180.22
2019-05-14T05:33:06.064Z,103174.00
2019-05-14T05:34:12.948Z,103173.67
2019-05-14T05:35:20.833Z,103172.48
2019-05-14T05:36:29.026Z,103172.25
2019-05-14T05:37:38.476Z,103169.45
2019-05-14T05:38:45.445Z,103174.27
2019-05-14T05:39:52.976Z,103176.45
2019-05-14T05:41:00.481Z,103167.70
2019-05-14T05:42:09.381Z,103164.44
2019-05-14T05:43:19.009Z,103165.89
2019-05-14T05:44:28.535Z,103169.45
2019-05-14T05:45:34.901Z,103165.29
2019-05-14T05:46:43.283Z,103173.89
2019-05-14T05:47:57.770Z,103175.81
2019-05-14T05:49:00.417Z,103169.98
2019-05-14T05:50:08.807Z,103174.83
2019-05-14T05:51:18.665Z,103171.51
2019-05-14T05:52:25.157Z,103166.36
2019-05-14T05:53:33.448Z,103168.39
2019-05-14T05:54:40.725Z,103171.88
2019-05-14T05:55:49.208Z,103164.67
2019-05-14T05:56:58.140Z,103164.72
2019-05-14T05:58:05.888Z,103165.69
2019-05-14T05:59:13.032Z,103162.41
2019-05-14T06:00:53.741Z,103160.43
2019-05-14T06:02:00.818Z,103167.40
2019-05-14T06:03:10.687Z,103164.11
2019-05-14T06:04:18.255Z,103156.94
2019-05-14T06:05:25.942Z,103159.19
2019-05-14T06:06:32.986Z,103152.91
2019-05-14T06:07:40.479Z,103158.05
2019-05-14T06:08:49.173Z,103158.52
2019-05-14T06:09:58.637Z,103162.81
2019-05-14T06:11:05.314Z,103154.47
2019-05-14T06:12:12.999Z,103158.95
2019-05-14T06:13:19.836Z,103162.95
2019-05-14T06:14:29.170Z,103160.30
2019-05-14T06:15:45.676Z,103169.25
2019-05-14T06:16:45.505Z,103168.89
2019-05-14T06:17:52.565Z,103160.86
2019-05-14T06:19:00.445Z,103167.39
2019-05-14T06:20:08.611Z,103169.66
2019-05-14T06:21:18.710Z,103164.19
2019-05-14T06:22:25.083Z,103162.97
2019-05-14T06:23:32.991Z,103165.98
2019-05-14T06:24:39.780Z,103171.56
2019-05-14T06:25:49.134Z,103167.23
2019-05-14T06:26:58.375Z,103165.17
2019-05-14T06:28:04.985Z,103165.14
2019-05-14T06:29:12.153Z,103166.94
2019-05-14T06:30:36.251Z,103166.55
2019-05-14T06:31:43.041Z,103167.95
2019-05-14T06:32:51.322Z,103168.97
2019-05-14T06:33:59.124Z,103166.92
2019-05-14T06:35:08.795Z,103175.29
2019-05-14T06:36:19.110Z,103174.00
2019-05-14T06:37:25.221Z,103166.17
2019-05-14T06:38:32.739Z,103171.59
2019-05-14T06:39:40.331Z,103172.75
2019-05-14T06:40:48.918Z,103172.75
2019-05-14T06:41:58.520Z,103162.90
2019-05-14T06:43:05.151Z,103167.59
2019-05-14T06:44:12.623Z,103168.02
2019-05-14T06:45:20.127Z,103168.11
2019-05-14T06:46:28.409Z,103163.52
2019-05-14T06:47:35.316Z,103166.89
2019-05-14T06:48:42.798Z,103171.32
2019-05-14T06:49:49.553Z,103172.20
2019-05-14T06:50:58.298Z,103172.33
2019-05-14T06:52:08.454Z,103169.83
2019-05-14T06:53:15.313Z,103166.89
2019-05-14T06:54:22.044Z,103170.34
2019-05-14T06:55:29.523Z,103174.27
2019-05-14T06:56:38.518Z,103179.82
2019-05-14T06:57:47.883Z,103175.22
2019-05-14T06:58:54.074Z,103186.86
2019-05-14T07:00:01.911Z,103185.17
2019-05-14T07:01:09.627Z,103175.86
2019-05-14T07:02:19.397Z,103190.05
2019-05-14T07:03:28.104Z,103189.16
2019-05-14T07:04:39.210Z,103182.81
2019-05-14T07:05:45.516Z,103184.25
2019-05-14T07:06:53.001Z,103189.45
2019-05-14T07:07:59.887Z,103187.91
2019-05-14T07:09:09.275Z,103185.87
2019-05-14T07:10:19.450Z,103187.68
2019-05-14T07:11:26.010Z,103186.95
2019-05-14T07:12:33.064Z,103186.19
2019-05-14T07:13:40.943Z,103189.23
2019-05-14T07:14:48.241Z,103185.39
2019-05-14T07:15:58.335Z,103177.26
2019-05-14T07:17:04.914Z,103179.42
2019-05-14T07:18:12.393Z,103181.60
2019-05-14T07:19:19.336Z,103188.42
2019-05-14T07:20:28.306Z,103185.05
2019-05-14T07:21:35.433Z,103185.50
2019-05-14T07:22:43.484Z,103182.53
2019-05-14T07:23:50.339Z,103187.23
2019-05-14T07:24:58.673Z,103186.78
2019-05-14T07:26:08.126Z,103188.13
2019-05-14T07:27:15.226Z,103180.95
2019-05-14T07:28:22.283Z,103179.66
2019-05-14T07:29:29.778Z,103179.25
2019-05-14T07:30:39.325Z,103181.02
2019-05-14T07:31:48.740Z,103182.77
2019-05-14T07:32:55.003Z,103179.81
2019-05-14T07:34:02.573Z,103183.74
2019-05-14T07:35:11.240Z,103190.14
2019-05-14T07:36:19.411Z,103187.17
2019-05-14T07:37:28.434Z,103190.48
2019-05-14T07:38:35.671Z,103190.08
2019-05-14T07:39:42.776Z,103184.15
2019-05-14T07:40:51.123Z,103194.12
2019-05-14T07:41:59.127Z,103190.80
2019-05-14T07:43:08.988Z,103190.89
2019-05-14T07:44:18.198Z,103199.58
2019-05-14T07:45:25.708Z,103187.17
2019-05-14T07:46:32.740Z,103197.86
2019-05-14T07:47:40.258Z,103199.08
2019-05-14T07:49:03.982Z,103197.30
2019-05-14T07:49:58.238Z,103202.92
2019-05-14T07:51:05.217Z,103187.17
2019-05-14T07:52:13.045Z,103187.26
2019-05-14T07:53:19.766Z,103192.97
2019-05-14T07:54:28.301Z,103195.14
2019-05-14T07:55:35.307Z,103196.94
2019-05-14T07:56:43.603Z,103196.92
2019-05-14T07:57:50.668Z,103193.91
2019-05-14T07:59:01.930Z,103194.34
2019-05-14T08:00:08.168Z,103195.69
2019-05-14T08:01:15.751Z,103187.92
2019-05-14T08:02:22.543Z,103193.08
2019-05-14T08:03:30.402Z,103192.25
2019-05-14T08:04:38.116Z,103185.42
2019-05-14T08:05:48.228Z,103177.30
2019-05-14T08:06:54.991Z,103179.48
2019-05-14T08:08:02.793Z,103179.95
2019-05-14T08:09:10.900Z,103189.28
2019-05-14T08:10:20.041Z,103176.45
2019-05-14T08:11:28.092Z,103170.44
2019-05-14T08:12:36.012Z,103170.09
2019-05-14T08:13:43.072Z,103168.40
2019-05-14T08:15:11.030Z,103166.28
2019-05-14T08:16:00.015Z,103168.02
2019-05-14T08:17:08.644Z,103156.04
2019-05-14T08:18:15.635Z,103161.13
2019-05-14T08:19:27.127Z,103157.70
2019-05-14T08:20:31.609Z,103155.19
2019-05-14T08:21:39.617Z,103145.39
2019-05-14T08:22:48.839Z,103141.17
2019-05-14T08:23:59.121Z,103146.38
2019-05-14T08:25:05.150Z,103142.61
2019-05-14T08:26:12.941Z,103140.95
2019-05-14T08:27:19.712Z,103137.98
2019-05-14T08:28:28.993Z,103137.16
2019-05-14T08:29:39.117Z,103140.54
2019-05-14T08:30:44.906Z,103141.36
2019-05-14T08:31:51.684Z,103143.05
2019-05-14T08:32:59.262Z,103149.91
2019-05-14T08:34:09.029Z,103142.16
2019-05-14T08:35:18.414Z,103149.94
2019-05-14T08:36:24.511Z,103149.13
2019-05-14T08:37:32.532Z,103150.83
2019-05-14T08:38:39.631Z,103155.51
2019-05-14T08:39:48.602Z,103154.69
2019-05-14T08:40:55.663Z,103150.41
2019-05-14T08:42:04.400Z,103149.13
2019-05-14T08:43:11.483Z,103152.60
2019-05-14T08:44:19.867Z,103147.91
2019-05-14T08:45:28.373Z,103142.38
2019-05-14T08:46:36.129Z,103137.22
2019-05-14T08:47:42.976Z,103134.64
2019-05-14T08:48:50.455Z,103140.19
2019-05-14T08:49:59.949Z,103136.78
2019-05-14T08:51:09.117Z,103131.64
2019-05-14T08:52:16.229Z,103130.37
2019-05-14T08:53:24.106Z,103130.38
2019-05-14T08:54:30.838Z,103131.27
2019-05-14T08:55:38.473Z,103134.70
2019-05-14T08:56:45.225Z,103135.97
2019-05-14T08:57:52.754Z,103128.66
2019-05-14T08:58:59.539Z,103129.51
2019-05-14T09:00:13.673Z,103124.75
2019-05-14T09:01:19.405Z,103132.05
2019-05-14T09:02:28.497Z,103130.27
2019-05-14T09:03:34.494Z,103131.09
2019-05-14T09:04:43.774Z,103132.75
2019-05-14T09:05:51.297Z,103128.48
2019-05-14T09:06:58.796Z,103126.38
2019-05-14T09:08:05.961Z,103128.98
2019-05-14T09:09:14.098Z,103128.14
2019-05-14T09:10:21.124Z,103121.33
2019-05-14T09:11:35.411Z,103125.23
2019-05-14T09:12:38.889Z,103123.06
2019-05-14T09:13:49.057Z,103128.20
2019-05-14T09:14:55.690Z,103125.64
2019-05-14T09:16:04.080Z,103132.09
2019-05-14T09:17:14.659Z,103131.19
2019-05-14T09:18:20.703Z,103125.18
2019-05-14T09:19:28.730Z,103126.03
2019-05-14T09:20:38.144Z,103121.75
2019-05-14T09:21:45.014Z,103126.45
2019-05-14T09:22:53.240Z,103126.89
2019-05-14T09:23:59.981Z,103120.48
2019-05-14T09:25:08.495Z,103126.51
2019-05-14T09:26:15.379Z,103125.25
2019-05-14T09:27:23.453Z,103125.69
2019-05-14T09:28:30.564Z,103124.83
2019-05-14T09:29:39.468Z,103115.83
2019-05-14T09:30:48.702Z,103117.97
2019-05-14T09:31:58.903Z,103120.56
2019-05-14T09:33:08.538Z,103122.30
2019-05-14T09:34:19.442Z,103120.56
2019-05-14T09:35:25.656Z,103119.67
2019-05-14T09:36:33.225Z,103120.53
2019-05-14T09:37:40.081Z,103121.81
2019-05-14T09:38:49.148Z,103125.27
2019-05-14T09:39:58.420Z,103123.55
2019-05-14T09:41:14.217Z,103117.52
2019-05-14T09:42:14.158Z,103114.53
2019-05-14T09:43:21.620Z,103108.92
2019-05-14T09:44:29.407Z,103104.64
2019-05-14T09:45:38.811Z,103099.91
2019-05-14T09:46:45.671Z,103102.50
2019-05-14T09:47:53.148Z,103098.20
2019-05-14T09:48:59.893Z,103099.50
2019-05-14T09:50:29.248Z,103095.62
2019-05-14T09:51:38.135Z,103093.48
2019-05-14T09:52:45.981Z,103090.48
2019-05-14T09:53:53.084Z,103089.61
2019-05-14T09:55:00.956Z,103084.46
2019-05-14T09:56:09.123Z,103081.02
2019-05-14T09:57:18.908Z,103086.16
2019-05-14T09:58:28.011Z,103077.16
2019-05-14T09:59:35.159Z,103081.45
2019-05-14T10:00:41.879Z,103081.02
2019-05-14T10:01:50.694Z,103084.04
2019-05-14T10:02:59.657Z,103078.03
2019-05-14T10:04:09.189Z,103092.63
2019-05-14T10:05:19.485Z,103081.02
2019-05-14T10:06:28.430Z,103081.88
2019-05-14T10:07:35.858Z,103081.02
2019-05-14T10:08:43.741Z,103082.77
2019-05-14T10:09:50.471Z,103085.32
2019-05-14T10:11:00.258Z,103081.04
2019-05-14T10:12:08.912Z,103078.44
2019-05-14T10:13:16.454Z,103075.91
2019-05-14T10:14:23.194Z,103072.45
2019-05-14T10:15:30.661Z,103072.44
2019-05-14T10:16:38.668Z,103071.13
2019-05-14T10:17:49.797Z,103068.55
2019-05-14T10:18:55.124Z,103061.69
2019-05-14T10:20:02.596Z,103058.27
2019-05-14T10:21:09.696Z,103067.27
2019-05-14T10:22:19.780Z,103062.11
2019-05-14T10:23:28.153Z,103070.70
2019-05-14T10:24:35.334Z,103059.94
2019-05-14T10:25:42.597Z,103057.77
2019-05-14T10:26:50.288Z,103058.19
2019-05-14T10:27:59.040Z,103051.66
2019-05-14T10:29:08.520Z,103049.92
2019-05-14T10:30:17.979Z,103052.02
2019-05-14T10:31:25.062Z,103050.68
2019-05-14T10:32:32.238Z,103050.61
2019-05-14T10:33:39.814Z,103056.19
2019-05-14T10:34:48.548Z,103054.89
2019-05-14T10:35:58.744Z,103054.50
2019-05-14T10:37:04.989Z,103051.08
2019-05-14T10:38:13.204Z,103053.21
2019-05-14T10:39:20.657Z,103046.75
2019-05-14T10:40:29.220Z,103054.44
2019-05-14T10:41:38.519Z,103056.58
2019-05-14T10:42:49.227Z,103056.23
2019-05-14T10:43:54.582Z,103057.13
2019-05-14T10:45:02.194Z,103051.53
2019-05-14T10:46:09.289Z,103042.49
2019-05-14T10:47:18.830Z,103040.35
2019-05-14T10:48:25.575Z,103044.16
2019-05-14T10:49:33.540Z,103046.72
2019-05-14T10:50:56.130Z,103038.52
2019-05-14T10:51:49.931Z,103032.06
2019-05-14T10:52:59.850Z,103027.69
2019-05-14T10:54:21.240Z,103031.48
2019-05-14T10:55:18.419Z,103024.16
2019-05-14T10:56:26.076Z,103028.91
2019-05-14T10:57:32.815Z,103025.04
2019-05-14T10:58:40.350Z,103023.65
2019-05-14T10:59:47.194Z,103013.38
2019-05-14T11:00:55.090Z,103017.21
2019-05-14T11:02:02.158Z,103022.75
2019-05-14T11:03:09.649Z,103024.88
2019-05-14T11:04:18.822Z,103024.41
2019-05-14T11:05:27.997Z,103020.07
2019-05-14T11:06:34.637Z,103013.58
2019-05-14T11:07:42.489Z,103014.00
2019-05-14T11:08:49.560Z,103013.51
2019-05-14T11:09:57.096Z,103012.67
2019-05-14T11:11:05.123Z,103009.16
2019-05-14T11:12:13.073Z,103012.20
2019-05-14T11:13:20.245Z,103003.56
2019-05-14T11:14:31.822Z,102998.73
2019-05-14T11:15:39.266Z,103004.16
2019-05-14T11:16:45.734Z,102998.56
2019-05-14T11:17:52.473Z,102997.71
2019-05-14T11:18:59.955Z,102994.55
2019-05-14T11:20:09.061Z,102989.75
2019-05-14T11:21:23.055Z,102994.56
2019-05-14T11:22:25.357Z,102994.95
2019-05-14T11:23:33.167Z,102993.17
2019-05-14T11:24:40.021Z,102992.36
2019-05-14T11:25:48.714Z,102991.56
2019-05-14T11:26:55.687Z,102996.73
2019-05-14T11:28:03.625Z,102992.34
2019-05-14T11:29:10.701Z,102995.59
2019-05-14T11:30:19.461Z,102989.88
2019-05-14T11:31:26.311Z,102982.42
2019-05-14T11:32:34.616Z,102992.08
2019-05-14T11:33:41.319Z,102981.50
2019-05-14T11:34:48.878Z,102983.30
2019-05-14T11:35:58.324Z,102982.48
2019-05-14T11:37:08.371Z,102984.23
2019-05-14T11:38:28.359Z,102995.41
2019-05-14T11:39:23.927Z,102983.30
2019-05-14T11:40:30.645Z,102977.19
2019-05-14T11:41:39.062Z,102975.78
2019-05-14T11:42:49.296Z,102973.05
2019-05-14T11:43:55.750Z,102968.70
2019-05-14T11:45:02.489Z,102977.05
2019-05-14T11:46:10.093Z,102973.88
2019-05-14T11:47:18.159Z,102974.16
2019-05-14T11:48:25.738Z,102966.80
2019-05-14T11:49:32.705Z,102970.87
2019-05-14T11:50:40.393Z,102970.58
2019-05-14T11:52:00.919Z,102965.80
2019-05-14T11:52:58.538Z,102972.48
2019-05-14T11:54:09.247Z,102969.54
2019-05-14T11:55:18.647Z,102962.82
2019-05-14T11:56:24.867Z,102958.09
2019-05-14T11:57:32.335Z,102958.42
2019-05-14T11:58:39.520Z,102965.37
2019-05-14T11:59:46.987Z,102966.20
2019-05-14T12:00:53.807Z,102970.72
2019-05-14T12:02:01.295Z,102973.39
2019-05-14T12:03:09.222Z,102966.50
2019-05-14T12:04:18.818Z,102962.86
2019-05-14T12:05:25.821Z,102959.27
2019-05-14T12:06:33.777Z,102950.87
2019-05-14T12:07:40.544Z,102961.45
2019-05-14T12:08:48.038Z,102960.46
2019-05-14T12:09:55.104Z,102957.62
2019-05-14T12:11:02.601Z,102956.51
2019-05-14T12:12:12.345Z,102962.81
2019-05-14T12:13:19.455Z,102954.12
2019-05-14T12:14:26.305Z,102948.05
2019-05-14T12:15:34.020Z,102958.03
2019-05-14T12:16:40.903Z,102950.94
2019-05-14T12:17:51.037Z,102941.91
2019-05-14T12:18:59.073Z,102942.03
2019-05-14T12:20:06.705Z,102939.53
2019-05-14T12:21:13.459Z,102939.75
2019-05-14T12:22:21.062Z,102933.46
2019-05-14T12:23:29.824Z,102927.42
2019-05-14T12:24:38.790Z,102921.77
2019-05-14T12:25:48.897Z,102932.88
2019-05-14T12:26:55.362Z,102925.77
2019-05-14T12:28:02.177Z,102923.19
2019-05-14T12:29:10.142Z,102931.51
2019-05-14T12:30:19.693Z,102927.75
2019-05-14T12:31:28.967Z,102929.62
2019-05-14T12:32:39.191Z,102929.15
2019-05-14T12:33:45.665Z,102926.54
2019-05-14T12:34:53.115Z,102925.19
2019-05-14T12:36:00.819Z,102926.02
2019-05-14T12:37:09.130Z,102927.27
2019-05-14T12:38:18.759Z,102925.16
2019-05-14T12:39:25.756Z,102920.06
2019-05-14T12:40:33.289Z,102911.41
2019-05-14T12:41:40.024Z,102914.91
2019-05-14T12:42:49.616Z,102927.95
2019-05-14T12:43:58.796Z,102909.02
2019-05-14T12:45:06.099Z,102908.59
2019-05-14T12:46:13.247Z,102909.42
2019-05-14T12:47:20.760Z,102912.32
2019-05-14T12:48:29.792Z,102918.63
2019-05-14T12:49:38.901Z,102907.42
2019-05-14T12:50:48.656Z,102904.34
2019-05-14T12:51:55.041Z,102915.76
2019-05-14T12:53:02.181Z,102912.61
2019-05-14T12:54:09.674Z,102905.19
2019-05-14T12:55:19.786Z,102906.40
2019-05-14T12:56:29.436Z,102902.64
2019-05-14T12:57:39.025Z,102906.12
2019-05-14T12:58:46.044Z,102905.70